Gray Mountain, Arizona
Current Conditions -  °F | °C
As of 12:54 PM on Sunday 21 Dec 2014 (Local Time) from KGCN Reporting Station
Clear Clear  
Wind Chill:   Ceiling: Unl
Heat Index:   Visibility: 10mi
Dew Point:   Wind: 8mph
Humidity: 60%   Direction: 330°NNW
Pressure: 30.13"   Gusts: NA
Location:  35.75°N, 111.48°W
Report Text: KGCN 211954Z 33007KT 10SM CLR 07/00 A3013 RMK AO2 SLP190 T00720000
Loading
Personal Weather Stations






























Interactive Weather Map New forecast layout! Learn more

10-Day Weather Forecast

Advertisements
Track Severe Weather on mobile